Time;durP1;ratioP1;P1;durP2;ratioP2;P2;SDS_P1;SDS_P2;PMS_P1;PMS_P2;Temp;Humidity;BMP_temperature;BMP_pressure;BME280_temperature;BME280_humidity;BME280_pressure;Samples;Min_cycle;Max_cycle;Signal;HPM_P1;HPM_P2
2024/04/23 00:02:06;;;;;;;0.00;0.00;;;-0.20;86.40;;;;;;5392025;26;20478;-80
2024/04/23 00:04:33;;;;;;;0.20;0.20;;;-0.10;92.20;;;;;;5373326;26;20048;-81
2024/04/23 00:07:00;;;;;;;0.00;0.00;;;-0.20;82.70;;;;;;5390978;26;20039;-80
2024/04/23 00:09:28;;;;;;;0.50;0.50;;;-0.20;83.50;;;;;;5392119;26;20043;-80
2024/04/23 00:11:54;;;;;;;0.80;0.52;;;-0.20;90.20;;;;;;5389661;26;20495;-80
2024/04/23 00:14:21;;;;;;;0.00;0.00;;;-0.30;89.00;;;;;;5387318;26;20040;-80
2024/04/23 00:17:06;;;;;;;0.10;0.10;;;-0.30;96.20;;;;;;5395617;26;20040;-81
2024/04/23 00:19:33;;;;;;;0.15;0.15;;;-0.30;99.90;;;;;;5388982;26;20040;-80
2024/04/23 00:21:59;;;;;;;0.00;0.00;;;-0.30;99.90;;;;;;5391318;26;20032;-80
2024/04/23 00:24:26;;;;;;;0.10;0.10;;;-0.30;99.90;;;;;;5387408;26;20164;-80
2024/04/23 00:26:53;;;;;;;0.20;0.20;;;-0.30;99.90;;;;;;5386899;26;20035;-79
2024/04/23 00:29:19;;;;;;;0.82;0.82;;;-0.40;99.90;;;;;;5391353;26;20039;-79
2024/04/23 00:31:45;;;;;;;0.28;0.28;;;-0.40;99.90;;;;;;5388653;26;20039;-80
2024/04/23 00:34:11;;;;;;;0.32;0.32;;;-0.50;99.90;;;;;;5394541;26;20039;-80
2024/04/23 00:36:37;;;;;;;0.28;0.28;;;-0.50;99.90;;;;;;5390271;26;20072;-80
2024/04/23 00:39:04;;;;;;;0.35;0.35;;;-0.40;99.90;;;;;;5390710;26;20044;-80
2024/04/23 00:41:30;;;;;;;1.85;0.50;;;-0.50;99.90;;;;;;5386046;26;20045;-81
2024/04/23 00:43:56;;;;;;;0.17;0.17;;;-0.40;99.90;;;;;;5394973;26;20039;-80
2024/04/23 00:46:28;;;;;;;0.20;0.20;;;-0.40;99.90;;;;;;5377584;26;20040;-80
2024/04/23 00:48:54;;;;;;;0.05;0.05;;;-0.30;99.90;;;;;;5390300;26;20351;-80
2024/04/23 00:51:20;;;;;;;0.52;0.38;;;-0.20;99.90;;;;;;5377591;26;20012;-80
2024/04/23 00:53:47;;;;;;;0.55;0.55;;;-0.10;99.90;;;;;;5380142;26;20018;-80
2024/04/23 00:56:15;;;;;;;0.45;0.38;;;-0.10;99.90;;;;;;5392715;26;20032;-80
2024/04/23 00:58:43;;;;;;;1.58;1.48;;;0.00;99.90;;;;;;5394052;26;20039;-81
2024/04/23 01:01:10;;;;;;;0.00;0.00;;;0.00;99.90;;;;;;5392129;26;20497;-81
2024/04/23 01:03:36;;;;;;;0.17;0.17;;;0.00;99.90;;;;;;5347885;26;20035;-80
2024/04/23 01:06:02;;;;;;;0.00;0.00;;;0.10;99.90;;;;;;5369096;26;20048;-81
2024/04/23 01:08:28;;;;;;;0.73;0.73;;;0.10;99.90;;;;;;5390172;26;20500;-81
2024/04/23 01:10:54;;;;;;;1.38;0.47;;;0.10;99.90;;;;;;5373783;26;20460;-81
2024/04/23 01:13:21;;;;;;;0.55;0.55;;;0.10;99.90;;;;;;5385170;26;20044;-80
2024/04/23 01:15:49;;;;;;;0.88;0.85;;;0.20;99.90;;;;;;5397757;26;20049;-81
2024/04/23 01:18:17;;;;;;;1.20;1.13;;;0.20;99.90;;;;;;5386896;26;20040;-81
2024/04/23 01:20:43;;;;;;;1.23;1.17;;;0.20;99.90;;;;;;5387510;26;20043;-81
2024/04/23 01:23:36;;;;;;;0.45;0.45;;;0.20;99.90;;;;;;5377550;26;20039;-80
2024/04/23 01:26:08;;;;;;;1.85;0.65;;;0.20;99.90;;;;;;5392992;26;20039;-81
2024/04/23 01:28:37;;;;;;;0.75;0.75;;;0.20;99.90;;;;;;5387851;26;20048;-81
2024/04/23 01:31:08;;;;;;;0.10;0.10;;;0.20;99.90;;;;;;5365553;26;20044;-81
2024/04/23 01:33:35;;;;;;;;;;;0.20;99.90;;;;;;5392860;26;20031;-80
2024/04/23 01:36:03;;;;;;;0.20;0.20;;;0.30;99.90;;;;;;5372256;26;19949;-81
2024/04/23 01:38:31;;;;;;;0.65;0.65;;;0.30;99.90;;;;;;5388442;26;20032;-81
2024/04/23 01:40:57;;;;;;;0.22;0.22;;;0.30;99.90;;;;;;5390992;26;20039;-81
2024/04/23 01:43:24;;;;;;;0.10;0.10;;;0.30;99.90;;;;;;5381238;26;20067;-80
2024/04/23 01:45:50;;;;;;;0.75;0.75;;;0.30;99.90;;;;;;5355813;26;20014;-81
2024/04/23 01:48:17;;;;;;;0.57;0.57;;;0.40;99.90;;;;;;5381139;26;20038;-80
2024/04/23 01:50:43;;;;;;;0.32;0.32;;;0.40;98.10;;;;;;5358478;26;20459;-81
2024/04/23 01:53:10;;;;;;;0.20;0.20;;;0.40;93.90;;;;;;5377348;26;20022;-81
2024/04/23 01:55:36;;;;;;;0.20;0.20;;;0.40;91.10;;;;;;5367814;26;20039;-80
2024/04/23 01:58:02;;;;;;;0.15;0.15;;;0.40;86.80;;;;;;5397871;26;20744;-81
2024/04/23 02:00:30;;;;;;;0.15;0.15;;;0.40;86.60;;;;;;5369992;26;20389;-81
2024/04/23 02:03:00;;;;;;;0.13;0.13;;;0.40;86.40;;;;;;5377205;26;20654;-81
2024/04/23 02:05:27;;;;;;;0.75;0.47;;;0.40;81.10;;;;;;5402919;26;20040;-80
2024/04/23 02:07:54;;;;;;;0.50;0.50;;;0.40;77.30;;;;;;5357666;26;20040;-81
2024/04/23 02:10:20;;;;;;;0.32;0.32;;;0.50;76.10;;;;;;5369362;26;20532;-81
2024/04/23 02:12:46;;;;;;;0.08;0.08;;;0.40;70.90;;;;;;5365964;26;20059;-81
2024/04/23 02:15:13;;;;;;;0.47;0.47;;;0.40;64.30;;;;;;5397657;26;20047;-81
2024/04/23 02:17:39;;;;;;;1.10;0.95;;;0.40;65.50;;;;;;5392556;26;20923;-81
2024/04/23 02:20:07;;;;;;;5.47;2.72;;;0.40;68.30;;;;;;5367949;26;20007;-81
2024/04/23 02:22:34;;;;;;;0.10;0.10;;;0.40;63.20;;;;;;5394363;26;20047;-80
2024/04/23 02:25:00;;;;;;;1.20;1.10;;;0.40;67.60;;;;;;5391599;26;20504;-82
2024/04/23 02:27:26;;;;;;;0.60;0.60;;;0.40;67.30;;;;;;5397198;26;20044;-80
2024/04/23 02:29:52;;;;;;;0.73;0.73;;;0.30;75.50;;;;;;5371090;26;20044;-81
2024/04/23 02:32:18;;;;;;;0.85;0.70;;;0.30;79.90;;;;;;5367818;26;20044;-80
2024/04/23 02:34:45;;;;;;;0.82;0.82;;;0.30;81.50;;;;;;5390443;26;20028;-80
2024/04/23 02:37:11;;;;;;;0.28;0.28;;;0.30;77.20;;;;;;5395973;26;20036;-80
2024/04/23 02:39:37;;;;;;;0.30;0.30;;;0.20;74.30;;;;;;5395047;26;20051;-81
2024/04/23 02:42:03;;;;;;;1.20;0.98;;;0.20;79.70;;;;;;5402314;26;20039;-81
2024/04/23 02:44:31;;;;;;;0.05;0.05;;;0.20;88.00;;;;;;5394496;26;20036;-81
2024/04/23 02:46:57;;;;;;;0.45;0.45;;;0.10;91.00;;;;;;5393361;26;20044;-81
2024/04/23 02:49:23;;;;;;;0.52;0.52;;;0.10;90.60;;;;;;5400980;26;20048;-81
2024/04/23 02:51:51;;;;;;;0.57;0.57;;;0.10;96.50;;;;;;5395695;26;20044;-81
2024/04/23 02:54:17;;;;;;;2.80;1.20;;;0.10;99.90;;;;;;5389966;26;20117;-81
2024/04/23 02:56:44;;;;;;;0.35;0.32;;;0.00;99.90;;;;;;5390376;26;20052;-81
2024/04/23 02:59:11;;;;;;;0.38;0.20;;;-0.10;99.90;;;;;;5396582;26;20040;-81
2024/04/23 03:01:37;;;;;;;0.20;0.20;;;-0.10;99.90;;;;;;5396106;26;20041;-81
2024/04/23 03:04:03;;;;;;;0.60;0.60;;;-0.10;99.90;;;;;;5377380;26;20039;-81
2024/04/23 03:06:29;;;;;;;0.52;0.47;;;-0.10;99.90;;;;;;5369870;26;20035;-79
2024/04/23 03:08:55;;;;;;;3.50;1.40;;;-0.20;99.90;;;;;;5388414;26;20035;-80
2024/04/23 03:11:21;;;;;;;0.15;0.15;;;-0.20;99.90;;;;;;5391018;26;20035;-81
2024/04/23 03:13:48;;;;;;;0.63;0.60;;;-0.20;99.90;;;;;;5394531;26;21148;-81
2024/04/23 03:16:14;;;;;;;1.27;0.63;;;-0.30;99.90;;;;;;5366098;26;20465;-80
2024/04/23 03:18:40;;;;;;;0.43;0.43;;;-0.30;99.90;;;;;;5397691;26;20035;-80
2024/04/23 03:21:07;;;;;;;1.02;0.80;;;-0.30;99.90;;;;;;5390820;26;20040;-81
2024/04/23 03:23:33;;;;;;;0.93;0.82;;;-0.40;99.90;;;;;;5388132;26;20043;-80
2024/04/23 03:25:59;;;;;;;2.10;0.50;;;-0.40;99.90;;;;;;5392158;26;20166;-80
2024/04/23 03:28:25;;;;;;;0.10;0.10;;;-0.50;99.90;;;;;;5391670;26;20036;-80
2024/04/23 03:30:51;;;;;;;0.22;0.20;;;-0.50;99.90;;;;;;5350275;26;20044;-80
2024/04/23 03:33:17;;;;;;;0.17;0.17;;;-0.60;99.90;;;;;;5378624;26;20040;-81
2024/04/23 03:35:44;;;;;;;2.28;0.35;;;-0.60;99.90;;;;;;5392844;26;20047;-80
2024/04/23 03:38:10;;;;;;;0.45;0.45;;;-0.60;99.90;;;;;;5397333;26;20360;-80
2024/04/23 03:40:36;;;;;;;0.22;0.22;;;-0.70;99.90;;;;;;5392584;26;20052;-80
2024/04/23 03:43:02;;;;;;;0.05;0.05;;;-0.70;99.90;;;;;;5387395;26;20048;-81
2024/04/23 03:45:28;;;;;;;0.40;0.40;;;-0.70;99.90;;;;;;5391181;26;20043;-80
2024/04/23 03:47:54;;;;;;;0.95;0.90;;;-0.70;99.90;;;;;;5378111;26;20039;-81
2024/04/23 03:50:20;;;;;;;2.90;0.65;;;-0.80;99.90;;;;;;5364074;26;20035;-82
2024/04/23 03:52:47;;;;;;;0.65;0.65;;;-0.80;99.90;;;;;;5389790;26;20543;-81
2024/04/23 03:55:13;;;;;;;0.45;0.32;;;-0.80;99.90;;;;;;5396741;26;20358;-80
2024/04/23 03:57:39;;;;;;;3.63;0.68;;;-0.80;99.90;;;;;;5394210;26;20043;-81
2024/04/23 04:00:06;;;;;;;0.20;0.20;;;-0.80;99.90;;;;;;5403183;26;20039;-80
2024/04/23 04:08:02;;;;;;;0.25;0.25;;;-0.90;99.90;;;;;;5398967;26;20358;-79
2024/04/23 04:10:28;;;;;;;0.98;0.98;;;-0.90;99.90;;;;;;5396853;26;20035;-79
2024/04/23 04:12:54;;;;;;;0.65;0.65;;;-1.00;99.90;;;;;;5395357;26;20039;-81
2024/04/23 04:15:20;;;;;;;0.43;0.43;;;-1.00;99.90;;;;;;5393478;26;20048;-80
2024/04/23 04:17:46;;;;;;;1.30;1.20;;;-1.00;99.90;;;;;;5393428;26;20131;-80
2024/04/23 04:20:12;;;;;;;0.40;0.40;;;-1.00;99.90;;;;;;5393059;26;20045;-81
2024/04/23 04:22:38;;;;;;;0.38;0.38;;;-1.00;99.90;;;;;;5390959;26;20043;-80
2024/04/23 04:25:05;;;;;;;0.20;0.20;;;-0.90;99.90;;;;;;5377084;26;20082;-79
2024/04/23 04:27:31;;;;;;;0.82;0.17;;;-1.00;99.90;;;;;;5349563;26;20008;-79
2024/04/23 04:29:58;;;;;;;0.40;0.40;;;-1.00;99.90;;;;;;5388565;26;20045;-79
2024/04/23 04:32:24;;;;;;;0.10;0.10;;;-0.90;99.90;;;;;;5383170;26;20476;-79
2024/04/23 04:34:50;;;;;;;1.55;0.25;;;-0.90;99.90;;;;;;5383675;26;20034;-78
2024/04/23 04:37:16;;;;;;;2.70;0.60;;;-1.00;99.90;;;;;;5376222;26;20051;-80
2024/04/23 04:39:42;;;;;;;0.25;0.25;;;-0.90;99.90;;;;;;5383658;26;20004;-73
2024/04/23 04:42:09;;;;;;;0.45;0.45;;;-1.00;99.90;;;;;;5392822;26;20036;-79
2024/04/23 04:44:36;;;;;;;0.55;0.55;;;-1.00;99.90;;;;;;5400293;26;20039;-79
2024/04/23 04:47:02;;;;;;;0.10;0.10;;;-0.90;99.90;;;;;;5392963;26;20385;-79
2024/04/23 04:49:28;;;;;;;0.75;0.75;;;-0.90;99.90;;;;;;5390611;26;20036;-78
2024/04/23 04:51:54;;;;;;;4.30;1.60;;;-0.90;99.90;;;;;;5392589;26;20040;-79
2024/04/23 04:54:21;;;;;;;0.08;0.08;;;-0.80;99.90;;;;;;5392605;26;20047;-79
2024/04/23 04:56:47;;;;;;;0.65;0.30;;;-0.80;99.90;;;;;;5395202;26;20119;-80
2024/04/23 04:59:13;;;;;;;3.17;0.85;;;-0.60;99.90;;;;;;5388810;26;20036;-81
2024/04/23 05:01:39;;;;;;;0.50;0.50;;;-0.20;99.90;;;;;;5388644;26;20044;-81
2024/04/23 05:04:05;;;;;;;1.17;1.02;;;0.20;46.10;;;;;;5394822;26;20044;-80
2024/04/23 05:06:33;;;;;;;0.45;0.45;;;0.70;1.00;;;;;;5344240;26;20059;-81
2024/04/23 05:08:59;;;;;;;1.05;1.05;;;1.10;1.00;;;;;;5364913;26;20048;-81
2024/04/23 05:11:25;;;;;;;1.50;1.40;;;1.30;99.90;;;;;;5392473;26;20048;-81
2024/04/23 05:13:51;;;;;;;0.98;0.95;;;1.70;99.90;;;;;;5396202;26;20040;-81
2024/04/23 05:16:17;;;;;;;1.75;1.00;;;1.80;99.90;;;;;;5380784;26;20048;-81
2024/04/23 05:18:43;;;;;;;0.68;0.68;;;2.00;99.90;;;;;;5369576;26;20044;-82
2024/04/23 05:21:09;;;;;;;0.63;0.63;;;2.10;89.90;;;;;;5364137;26;20388;-81
2024/04/23 05:23:36;;;;;;;4.50;1.25;;;2.50;52.10;;;;;;5377863;26;20055;-82
2024/04/23 05:26:02;;;;;;;1.98;1.75;;;2.80;10.40;;;;;;5396100;26;20044;-82
2024/04/23 05:28:28;;;;;;;9.55;1.05;;;2.90;1.00;;;;;;5391859;26;20040;-82
2024/04/23 05:33:39;;;;;;;0.38;0.38;;;3.10;1.00;;;;;;5390597;26;20052;-80
2024/04/23 05:36:05;;;;;;;0.10;0.10;;;3.50;1.00;;;;;;5392275;26;20041;-80
2024/04/23 05:38:31;;;;;;;0.50;0.50;;;3.90;99.90;;;;;;5358319;26;20036;-80
2024/04/23 05:40:57;;;;;;;0.70;0.55;;;3.80;99.90;;;;;;5390239;26;20040;-80
2024/04/23 05:43:24;;;;;;;0.20;0.20;;;3.70;99.90;;;;;;5387688;26;20040;-81
2024/04/23 05:45:50;;;;;;;0.50;0.50;;;3.70;99.90;;;;;;5397154;26;20055;-81
2024/04/23 05:48:54;;;;;;;0.20;0.20;;;4.10;99.90;;;;;;5378073;26;20039;-80
2024/04/23 05:52:16;;;;;;;0.52;0.52;;;4.30;99.90;;;;;;5389596;26;20043;-82
2024/04/23 05:55:33;;;;;;;0.30;0.30;;;4.40;99.90;;;;;;5367701;26;20075;-81
2024/04/23 05:58:01;;;;;;;0.43;0.43;;;4.80;99.90;;;;;;5374002;26;20039;-82
2024/04/23 06:00:27;;;;;;;0.70;0.70;;;5.40;99.90;;;;;;5378228;26;20048;-82
2024/04/23 06:02:54;;;;;;;0.55;0.55;;;5.60;64.30;;;;;;5403208;26;20059;-81
2024/04/23 06:05:20;;;;;;;0.55;0.55;;;5.70;94.90;;;;;;5379452;26;20038;-81
2024/04/23 06:07:46;;;;;;;0.20;0.20;;;5.40;87.30;;;;;;5377291;26;20055;-82
2024/04/23 06:10:12;;;;;;;0.20;0.20;;;5.40;99.90;;;;;;5379270;26;20043;-82
2024/04/23 06:12:38;;;;;;;0.25;0.25;;;5.70;47.00;;;;;;5394828;26;20043;-82
2024/04/23 06:15:05;;;;;;;1.05;0.73;;;5.70;19.60;;;;;;5373365;26;20052;-81
2024/04/23 06:17:35;;;;;;;0.52;0.52;;;6.00;26.80;;;;;;5387901;26;20040;-82
2024/04/23 06:20:05;;;;;;;0.32;0.32;;;6.40;1.00;;;;;;5388858;26;20051;-82
2024/04/23 06:22:36;;;;;;;0.10;0.10;;;6.60;1.00;;;;;;5381982;26;20040;-80
2024/04/23 06:25:07;;;;;;;0.22;0.22;;;6.20;1.00;;;;;;5391463;26;20040;-81
2024/04/23 06:27:37;;;;;;;0.28;0.28;;;5.80;1.00;;;;;;5364890;26;20044;-81
2024/04/23 06:30:06;;;;;;;0.88;0.52;;;6.30;1.00;;;;;;5399811;26;20040;-79
2024/04/23 06:32:32;;;;;;;0.40;0.40;;;6.30;1.00;;;;;;5377567;26;20040;-79
2024/04/23 06:34:58;;;;;;;0.57;0.57;;;5.90;1.00;;;;;;5401434;26;20496;-80
2024/04/23 06:37:24;;;;;;;0.32;0.30;;;6.00;1.00;;;;;;5399207;26;20049;-79
2024/04/23 06:39:50;;;;;;;0.52;0.52;;;7.00;1.00;;;;;;5376957;26;20388;-79
2024/04/23 06:42:17;;;;;;;1.55;0.40;;;7.10;99.90;;;;;;5395626;26;20056;-83
2024/04/23 06:44:43;;;;;;;0.20;0.20;;;8.00;99.90;;;;;;5397823;26;20036;-84
2024/04/23 06:47:09;;;;;;;1.10;0.63;;;8.40;99.90;;;;;;5378524;26;20036;-82
2024/04/23 06:49:37;;;;;;;0.38;0.38;;;8.10;99.90;;;;;;5381904;26;20043;-83
2024/04/23 06:52:03;;;;;;;0.75;0.65;;;8.40;99.90;;;;;;5337220;26;20053;-83
2024/04/23 06:54:30;;;;;;;0.30;0.30;;;7.30;99.90;;;;;;5344553;26;20041;-84
2024/04/23 06:56:56;;;;;;;3.92;0.50;;;6.70;99.90;;;;;;5364477;26;20036;-80
2024/04/23 06:59:23;;;;;;;0.90;0.38;;;6.50;99.90;;;;;;5350643;26;20391;-82
2024/04/23 07:01:49;;;;;;;0.32;0.32;;;6.50;99.90;;;;;;5355119;26;20300;-81
2024/04/23 07:04:16;;;;;;;0.30;0.30;;;6.90;99.90;;;;;;5359168;26;20045;-84
2024/04/23 07:06:42;;;;;;;0.20;0.20;;;7.20;99.90;;;;;;5353471;26;20045;-82
2024/04/23 07:09:09;;;;;;;0.40;0.40;;;7.80;99.90;;;;;;5360144;26;20041;-83
2024/04/23 07:11:35;;;;;;;0.35;0.35;;;8.20;99.90;;;;;;5344775;26;20036;-81
2024/04/23 07:14:03;;;;;;;0.95;0.28;;;7.60;99.90;;;;;;5359727;26;20045;-84
2024/04/23 07:16:30;;;;;;;0.43;0.43;;;7.20;99.90;;;;;;5358569;26;20045;-82
2024/04/23 07:18:56;;;;;;;0.45;0.30;;;7.90;99.90;;;;;;5353299;26;20495;-81
2024/04/23 07:21:22;;;;;;;0.22;0.22;;;7.40;99.90;;;;;;5352856;26;20044;-83
2024/04/23 07:23:48;;;;;;;0.38;0.30;;;8.20;99.90;;;;;;5355484;26;20036;-83
2024/04/23 07:26:15;;;;;;;1.00;0.68;;;8.90;99.90;;;;;;5367350;26;20048;-83
2024/04/23 07:28:41;;;;;;;0.55;0.40;;;9.60;99.90;;;;;;5357797;26;20512;-83
2024/04/23 07:31:08;;;;;;;0.20;0.20;;;9.90;99.90;;;;;;5364277;26;20040;-83
2024/04/23 07:33:34;;;;;;;0.35;0.30;;;10.20;99.90;;;;;;5360635;26;20041;-84
2024/04/23 07:36:00;;;;;;;0.13;0.13;;;11.00;99.90;;;;;;5327559;26;20049;-83
2024/04/23 07:38:27;;;;;;;0.40;0.30;;;10.90;99.90;;;;;;5355094;26;20045;-81
2024/04/23 07:40:53;;;;;;;0.20;0.20;;;10.20;99.90;;;;;;5365501;26;20465;-82
2024/04/23 07:43:19;;;;;;;0.10;0.10;;;9.40;99.90;;;;;;5363980;26;20041;-84
2024/04/23 07:45:45;;;;;;;0.28;0.20;;;8.90;99.90;;;;;;5340619;26;20036;-83
2024/04/23 07:48:11;;;;;;;0.43;0.30;;;9.70;99.90;;;;;;5350927;26;20042;-88
2024/04/23 07:50:38;;;;;;;0.10;0.10;;;9.50;99.90;;;;;;5372021;26;20499;-84
2024/04/23 07:53:04;;;;;;;0.20;0.20;;;9.90;99.90;;;;;;5352198;26;20395;-82
2024/04/23 07:55:31;;;;;;;0.38;0.28;;;9.90;99.90;;;;;;5326999;26;20388;-80
2024/04/23 07:57:57;;;;;;;0.20;0.20;;;10.10;99.90;;;;;;5311779;26;20037;-82
2024/04/23 08:00:26;;;;;;;0.47;0.43;;;10.30;99.90;;;;;;5322401;26;20386;-81
2024/04/23 08:02:54;;;;;;;0.47;0.28;;;9.70;99.90;;;;;;5317520;26;20046;-82
2024/04/23 08:05:24;;;;;;;2.75;1.02;;;9.20;99.90;;;;;;5340318;26;20049;-84
2024/04/23 08:07:50;;;;;;;0.60;0.60;;;9.30;99.90;;;;;;5324437;26;20050;-82
2024/04/23 08:10:17;;;;;;;1.88;0.75;;;9.20;99.90;;;;;;5290885;26;20041;-84
2024/04/23 08:12:44;;;;;;;0.35;0.35;;;9.30;99.90;;;;;;5324493;26;20058;-85
2024/04/23 08:15:11;;;;;;;1.42;0.57;;;10.10;99.90;;;;;;5330952;26;20045;-83
2024/04/23 08:17:38;;;;;;;2.05;0.73;;;12.10;99.90;;;;;;5324731;26;20049;-82
2024/04/23 08:20:05;;;;;;;1.23;0.57;;;11.60;99.90;;;;;;5324469;26;20038;-80
2024/04/23 08:22:31;;;;;;;0.47;0.25;;;9.40;99.90;;;;;;5311715;26;20040;-83
2024/04/23 08:24:57;;;;;;;0.20;0.20;;;9.80;99.90;;;;;;5323556;26;20665;-79
2024/04/23 08:27:23;;;;;;;0.55;0.55;;;9.80;99.90;;;;;;5325812;26;20042;-82
2024/04/23 08:29:50;;;;;;;0.30;0.30;;;10.20;99.90;;;;;;5331518;26;20040;-83
2024/04/23 08:32:16;;;;;;;0.45;0.35;;;11.00;99.90;;;;;;5337275;26;20045;-79
2024/04/23 08:34:42;;;;;;;1.08;1.05;;;11.20;99.90;;;;;;5324706;26;20046;-83
2024/04/23 08:37:09;;;;;;;0.20;0.20;;;10.70;99.90;;;;;;5325961;26;20037;-83
2024/04/23 08:39:35;;;;;;;0.20;0.20;;;12.10;99.90;;;;;;5318291;26;20038;-84
2024/04/23 08:42:04;;;;;;;1.10;0.50;;;11.40;99.90;;;;;;5317646;26;20042;-82
2024/04/23 08:44:36;;;;;;;0.90;0.80;;;10.30;99.90;;;;;;5350826;26;20107;-78
2024/04/23 08:47:04;;;;;;;0.20;0.20;;;11.30;99.90;;;;;;5322560;26;20042;-80
2024/04/23 08:49:31;;;;;;;0.57;0.57;;;11.40;99.90;;;;;;5320217;26;20045;-81
2024/04/23 08:51:58;;;;;;;0.35;0.35;;;10.40;99.90;;;;;;5344998;26;20094;-82
2024/04/23 08:54:25;;;;;;;0.52;0.52;;;11.60;99.90;;;;;;5387636;26;20060;-83
2024/04/23 08:56:53;;;;;;;0.52;0.52;;;12.40;99.90;;;;;;5388712;26;20040;-82
2024/04/23 08:59:21;;;;;;;1.02;0.60;;;13.20;99.90;;;;;;5373351;26;20035;-84
2024/04/23 09:01:57;;;;;;;0.10;0.10;;;12.90;99.90;;;;;;5387269;26;20044;-82
2024/04/23 09:04:25;;;;;;;1.05;0.93;;;14.00;99.90;;;;;;5395012;26;20036;-83
2024/04/23 09:06:53;;;;;;;0.32;0.32;;;14.30;99.90;;;;;;5336031;26;20040;-82
2024/04/23 09:09:21;;;;;;;0.43;0.43;;;14.10;99.90;;;;;;5386179;26;20032;-78
2024/04/23 09:11:51;;;;;;;0.28;0.25;;;13.50;99.90;;;;;;5338552;26;20039;-79
2024/04/23 09:14:18;;;;;;;0.40;0.32;;;13.60;99.90;;;;;;5392600;26;20033;-83
2024/04/23 09:16:44;;;;;;;0.22;0.22;;;13.90;99.90;;;;;;5393880;26;20492;-82
2024/04/23 09:19:10;;;;;;;0.15;0.15;;;12.00;99.90;;;;;;5373227;26;20036;-82
2024/04/23 09:21:37;;;;;;;0.10;0.10;;;10.90;99.90;;;;;;5396237;26;20039;-83
2024/04/23 09:24:04;;;;;;;0.20;0.20;;;10.90;99.90;;;;;;5384074;26;20047;-81
2024/04/23 09:26:31;;;;;;;0.32;0.32;;;11.90;99.90;;;;;;5392437;26;20048;-83
2024/04/23 09:28:57;;;;;;;0.40;0.40;;;11.60;99.90;;;;;;5390869;26;20035;-82
2024/04/23 09:31:24;;;;;;;1.27;0.30;;;11.00;99.90;;;;;;5373056;26;20480;-81
2024/04/23 09:33:51;;;;;;;0.38;0.38;;;12.20;99.90;;;;;;5367304;26;20036;-82
2024/04/23 09:36:21;;;;;;;0.45;0.43;;;14.20;99.90;;;;;;5364613;26;20035;-80
2024/04/23 09:38:47;;;;;;;1.00;0.63;;;14.50;99.90;;;;;;5366420;26;20044;-83
2024/04/23 09:41:14;;;;;;;0.10;0.10;;;16.00;99.90;;;;;;5398333;26;20051;-80
2024/04/23 09:43:40;;;;;;;0.13;0.13;;;15.30;99.90;;;;;;5368500;26;20781;-81
2024/04/23 09:46:08;;;;;;;0.73;0.63;;;14.70;99.90;;;;;;5390049;26;20045;-82
2024/04/23 09:48:38;;;;;;;0.60;0.50;;;13.80;99.90;;;;;;5396740;26;20040;-82
2024/04/23 09:51:09;;;;;;;0.47;0.40;;;14.00;99.90;;;;;;5374318;26;20036;-83
2024/04/23 09:53:36;;;;;;;0.20;0.20;;;13.70;99.90;;;;;;5370892;26;20040;-83
2024/04/23 09:56:04;;;;;;;0.35;0.35;;;13.70;99.90;;;;;;5377588;26;20147;-87
2024/04/23 09:58:32;;;;;;;0.30;0.30;;;12.40;99.90;;;;;;5389809;26;20040;-84
2024/04/23 10:00:59;;;;;;;0.40;0.40;;;13.20;99.90;;;;;;5387395;26;20045;-85
2024/04/23 10:03:26;;;;;;;0.28;0.28;;;13.70;99.90;;;;;;5394180;26;20386;-83
2024/04/23 10:06:01;;;;;;;1.13;0.93;;;13.50;99.90;;;;;;5341384;26;20469;-81
2024/04/23 10:08:33;;;;;;;5.05;1.23;;;13.10;99.90;;;;;;5377604;26;20041;-83
2024/04/23 10:11:01;;;;;;;0.70;0.70;;;11.60;99.90;;;;;;5367767;26;20032;-84
2024/04/23 10:13:35;;;;;;;1.95;0.85;;;11.50;99.90;;;;;;5399044;26;20036;-83
2024/04/23 10:16:27;;;;;;;0.43;0.43;;;11.40;99.90;;;;;;5398710;26;20505;-81
2024/04/23 10:19:11;;;;;;;0.20;0.20;;;10.90;99.90;;;;;;5365965;26;20052;-79
2024/04/23 10:21:42;;;;;;;0.20;0.20;;;10.20;99.90;;;;;;5386712;26;20044;-82
2024/04/23 10:24:09;;;;;;;4.57;0.60;;;10.00;99.90;;;;;;5393867;26;20036;-82
2024/04/23 10:26:44;;;;;;;0.43;0.43;;;10.10;99.90;;;;;;5406262;26;20035;-78
2024/04/23 10:29:13;;;;;;;0.32;0.32;;;10.10;99.90;;;;;;5365854;26;20035;-81
2024/04/23 10:31:41;;;;;;;0.60;0.50;;;9.60;99.90;;;;;;5382066;26;20032;-80
2024/04/23 10:34:08;;;;;;;0.20;0.20;;;9.50;99.90;;;;;;5383198;26;20492;-80
2024/04/23 10:36:38;;;;;;;0.82;0.63;;;9.90;99.90;;;;;;5371737;26;20028;-79
2024/04/23 10:39:06;;;;;;;0.20;0.20;;;10.10;99.90;;;;;;5391497;26;20027;-81
2024/04/23 10:41:37;;;;;;;1.08;0.45;;;10.30;99.90;;;;;;5403683;26;20039;-80
2024/04/23 10:44:10;;;;;;;0.30;0.30;;;10.40;99.90;;;;;;5368911;26;20040;-82
2024/04/23 10:46:40;;;;;;;0.68;0.68;;;10.80;99.90;;;;;;5395421;26;20060;-79
2024/04/23 10:49:19;;;;;;;0.20;0.20;;;10.80;99.90;;;;;;5382427;26;20343;-80
2024/04/23 10:51:49;;;;;;;1.25;0.50;;;10.60;99.90;;;;;;5345096;26;20479;-82
2024/04/23 10:54:19;;;;;;;0.25;0.25;;;11.00;99.90;;;;;;5324597;26;20044;-82
2024/04/23 10:57:07;;;;;;;0.40;0.40;;;11.20;99.90;;;;;;5324438;26;20042;-81
2024/04/23 10:59:36;;;;;;;0.43;0.38;;;10.70;99.90;;;;;;5359276;26;20070;-80
2024/04/23 11:02:07;;;;;;;0.30;0.30;;;11.00;99.90;;;;;;5329028;26;20223;-81
2024/04/23 11:04:41;;;;;;;0.20;0.20;;;10.90;99.90;;;;;;5322230;26;20037;-81
2024/04/23 11:07:10;;;;;;;0.20;0.20;;;10.50;99.90;;;;;;5327406;26;20053;-84
2024/04/23 11:09:43;;;;;;;0.20;0.20;;;10.60;99.90;;;;;;5324669;26;20041;-82
2024/04/23 11:12:17;;;;;;;0.20;0.20;;;10.30;99.90;;;;;;5326335;26;20044;-82
2024/04/23 11:14:44;;;;;;;0.20;0.20;;;10.30;99.90;;;;;;5319716;26;20040;-84
2024/04/23 11:17:10;;;;;;;0.73;0.35;;;10.20;99.90;;;;;;5312453;26;20037;-84
2024/04/23 11:19:46;;;;;;;0.43;0.43;;;10.40;99.90;;;;;;5339374;26;20040;-83
2024/04/23 11:22:13;;;;;;;0.30;0.30;;;10.80;99.90;;;;;;5319145;26;20034;-83
2024/04/23 11:24:43;;;;;;;0.20;0.20;;;11.20;99.90;;;;;;5334425;26;20390;-83
2024/04/23 11:27:14;;;;;;;0.93;0.50;;;11.10;99.90;;;;;;5325771;26;20052;-84
2024/04/23 11:29:45;;;;;;;1.85;1.15;;;11.40;99.90;;;;;;5326594;26;20036;-84
2024/04/23 11:32:13;;;;;;;3.20;0.40;;;11.40;99.90;;;;;;5330580;26;20467;-81
2024/04/23 11:34:42;;;;;;;0.32;0.32;;;10.80;99.90;;;;;;5332351;26;20177;-81
2024/04/23 11:37:08;;;;;;;0.20;0.20;;;10.90;99.90;;;;;;5307841;26;20479;-82
2024/04/23 11:39:36;;;;;;;0.20;0.20;;;10.70;99.90;;;;;;5318632;26;20009;-82
2024/04/23 11:42:09;;;;;;;0.82;0.82;;;10.70;99.90;;;;;;5336885;26;20036;-81
2024/04/23 11:44:35;;;;;;;0.40;0.40;;;10.60;99.90;;;;;;5312481;26;20393;-81
2024/04/23 11:47:01;;;;;;;0.30;0.30;;;10.60;99.90;;;;;;5304718;26;20048;-81
2024/04/23 11:49:28;;;;;;;0.38;0.38;;;11.20;99.90;;;;;;5333496;26;20036;-81
2024/04/23 11:51:54;;;;;;;0.20;0.20;;;11.40;99.90;;;;;;5310387;26;20032;-81
2024/04/23 11:54:22;;;;;;;0.28;0.28;;;11.10;99.90;;;;;;5328608;26;20033;-83
2024/04/23 11:56:50;;;;;;;0.20;0.20;;;10.80;99.90;;;;;;5328689;26;20536;-81
2024/04/23 11:59:22;;;;;;;0.63;0.45;;;10.80;99.90;;;;;;5304894;26;20041;-82
2024/04/23 12:01:49;;;;;;;0.30;0.30;;;11.30;99.90;;;;;;5294033;26;20196;-82
2024/04/23 12:04:17;;;;;;;0.50;0.30;;;11.50;99.90;;;;;;5362160;26;20498;-86
2024/04/23 12:06:46;;;;;;;1.17;0.50;;;11.50;99.90;;;;;;5356686;26;20040;-84
2024/04/23 12:09:13;;;;;;;0.20;0.20;;;11.10;99.90;;;;;;5361218;26;20036;-85
2024/04/23 12:11:44;;;;;;;0.28;0.28;;;11.00;99.90;;;;;;5356857;26;20032;-85
2024/04/23 12:14:10;;;;;;;0.40;0.40;;;10.70;99.90;;;;;;5376553;26;20068;-82
2024/04/23 12:16:46;;;;;;;0.38;0.38;;;11.30;99.90;;;;;;5337112;26;20036;-86
2024/04/23 12:19:12;;;;;;;0.30;0.30;;;11.50;99.90;;;;;;5358346;26;20029;-84
2024/04/23 12:21:40;;;;;;;0.50;0.50;;;11.30;99.90;;;;;;5357151;26;20036;-86
2024/04/23 12:24:06;;;;;;;2.83;0.50;;;11.60;99.90;;;;;;5357264;26;20037;-83
2024/04/23 12:26:32;;;;;;;0.50;0.43;;;11.50;99.90;;;;;;5373845;26;20033;-82
2024/04/23 12:28:59;;;;;;;0.20;0.20;;;11.60;99.90;;;;;;5352139;26;20049;-83
2024/04/23 12:31:25;;;;;;;0.40;0.40;;;11.80;99.90;;;;;;5370696;26;20048;-86
2024/04/23 12:33:59;;;;;;;0.40;0.40;;;11.20;99.90;;;;;;5334373;26;20064;-83
2024/04/23 12:36:25;;;;;;;1.55;0.50;;;11.60;99.90;;;;;;5360011;26;20046;-85
2024/04/23 12:38:52;;;;;;;0.10;0.10;;;11.90;99.90;;;;;;5357928;26;20033;-84
2024/04/23 12:41:23;;;;;;;0.77;0.77;;;11.90;99.90;;;;;;5359647;26;20051;-90
2024/04/23 12:43:50;;;;;;;0.25;0.25;;;11.20;99.90;;;;;;5364323;26;20037;-82
2024/04/23 12:46:18;;;;;;;1.65;0.80;;;11.50;99.90;;;;;;5343654;26;20040;-83
2024/04/23 12:48:46;;;;;;;0.55;0.55;;;11.30;99.90;;;;;;5357720;26;20037;-84
2024/04/23 12:51:13;;;;;;;0.40;0.30;;;11.50;99.90;;;;;;5360608;26;20588;-83
2024/04/23 12:53:39;;;;;;;0.75;0.75;;;11.40;99.90;;;;;;5408932;26;20492;-81
2024/04/23 12:56:07;;;;;;;0.40;0.40;;;11.30;99.90;;;;;;5397865;26;20040;-83
2024/04/23 12:58:35;;;;;;;0.68;0.40;;;11.50;99.90;;;;;;5377944;26;20392;-83
2024/04/23 13:01:01;;;;;;;0.30;0.30;;;11.40;99.90;;;;;;5380770;26;20041;-83
2024/04/23 13:03:28;;;;;;;0.20;0.20;;;11.80;99.90;;;;;;5396979;26;20485;-84